Flight Track Log - Related Links

Times and Time Zones

All times are in EDT time to prevent confusion due to time zone crossing. See the UAL4679 flight status page for this flight to view local times or setup timezone preferences in your user account.

Time Position Orientation Groundspeed Altitude Reporting Facility
EDT Latitude Longitude Course Direction KTS MPH feet Rate Location/Type
Fri 07:52:09 AM 41.3939 -81.8922 261° West 171 197 2,000  Level Cleveland Center
Fri 07:52:48 AM 41.3892 -81.9336 261° West 208 239 3,200 2,000 Climbing Cleveland Center
Fri 07:53:48 AM 41.3778 -82.0219 260° West 235 270 5,300 2,300 Climbing Cleveland Center
Fri 07:54:48 AM 41.3658 -82.1186 261° West 262 302 7,800 2,450 Climbing Cleveland Center
Fri 07:55:48 AM 41.3500 -82.2233 259° West 278 320 10,200 1,850 Climbing Cleveland Center
Fri 07:56:48 AM 41.3336 -82.3336 259° West 302 348 11,500 1,300 Climbing Cleveland Center
Fri 07:57:48 AM 41.3169 -82.4658 261° West 336 387 12,800 1,350 Climbing Cleveland Center
Fri 07:58:48 AM 41.2981 -82.5953 259° West 357 411 14,200 1,500 Climbing Cleveland Center
Fri 07:59:48 AM 41.3039 -82.7308 273° West 368 423 15,800 1,450 Climbing Cleveland Center
Fri 08:00:48 AM 41.3792 -82.8275 316° Northwest 347 399 17,100 1,200 Climbing Cleveland Center
Fri 08:01:48 AM 41.4569 -82.8994 325° Northwest 367 422 18,200 1,300 Climbing Cleveland Center
Fri 08:02:48 AM 41.5450 -82.9803 326° Northwest 383 441 19,700 1,500 Climbing Cleveland Center
Fri 08:03:48 AM 41.6350 -83.0669 324° Northwest 389 448 21,200 1,150 Climbing Cleveland Center
Fri 08:04:48 AM 41.7247 -83.1539 324° Northwest 394 453 22,000 400 Climbing Cleveland Center
Fri 08:05:48 AM 41.8186 -83.2442 324° Northwest 401 461 22,000  Level Cleveland Center
Fri 08:06:48 AM 41.9308 -83.3492 325° Northwest 431 496 22,000  Level Cleveland Center
Fri 08:07:48 AM 42.0306 -83.4458 324° Northwest 443 510 22,000  Level Cleveland Center
Fri 08:08:48 AM 42.1217 -83.5564 318° Northwest 443 510 22,000  Level Cleveland Center
Fri 08:09:48 AM 42.1981 -83.6581 315° West 437 503 22,000  Level Cleveland Center
Fri 08:10:48 AM 42.2756 -83.7992 307° West 429 494 22,000  Level Cleveland Center
Fri 08:11:48 AM 42.3319 -83.9369 299° West 429 494 22,000  Level Cleveland Center
Fri 08:12:48 AM 42.3903 -84.0778 299° West 429 494 22,000  Level Cleveland Center
Fri 08:13:48 AM 42.4464 -84.2189 298° West 429 494 22,000  Level Cleveland Center
Fri 08:15:51 AM 42.5661 -84.5061 300° West 426 490 22,000  Level Chicago Center
Fri 08:16:53 AM 42.6239 -84.6467 299° West 427 491 22,000  Level Chicago Center
Fri 08:17:54 AM 42.6797 -84.7867 299° West 427 491 22,000  Level Chicago Center
Fri 08:18:56 AM 42.7353 -84.9272 298° West 425 489 22,000  Level Chicago Center
Fri 08:19:58 AM 42.7917 -85.0678 299° West 424 488 22,000  Level Chicago Center
Fri 08:20:59 AM 42.8469 -85.2097 298° West 426 490 22,000  Level Chicago Center
Fri 08:22:01 AM 42.9017 -85.3497 298° West 421 484 22,000  Level Chicago Center
Fri 08:23:02 AM 42.9658 -85.5111 299° West 406 467 22,000  Level Chicago Center
Fri 08:24:04 AM 43.0161 -85.6417 298° West 393 452 22,000  Level Chicago Center
Fri 08:25:06 AM 43.0669 -85.7714 298° West 392 451 22,000  Level Chicago Center
Fri 08:26:07 AM 43.1178 -85.9014 298° West 397 457 22,000  Level Chicago Center
Fri 08:27:09 AM 43.1656 -86.0344 296° West 401 461 22,000  Level Chicago Center
Fri 08:28:10 AM 43.1675 -86.2103 271° West 393 452 22,000  Level Chicago Center
Fri 08:29:12 AM 43.1653 -86.3564 269° West 390 449 22,000 -387 Level Chicago Center
Fri 08:30:14 AM 43.1628 -86.5047 269° West 392 451 21,200 -1,463 Descending Chicago Center
Fri 08:31:15 AM 43.1603 -86.6458 269° West 377 434 19,000 -2,000 Descending Chicago Center
Fri 08:32:17 AM 43.1567 -86.7831 268° West 364 419 17,100 -1,951 Descending Chicago Center
Fri 08:33:18 AM 43.1544 -86.9222 269° West 366 421 15,000 -1,951 Descending Chicago Center
Fri 08:34:20 AM 43.1544 -87.0872 270° West 361 415 13,100 -1,659 Descending Chicago Center
Fri 08:35:21 AM 43.1275 -87.2064 253° West 349 402 11,600 -1,366 Descending Chicago Center
Fri 08:36:23 AM 43.0847 -87.3128 241° Southwest 324 373 10,300 -774 Descending Chicago Center
Fri 08:37:25 AM 43.0367 -87.4153 237° Southwest 329 379 10,000 -390 Descending Chicago Center
Fri 08:38:26 AM 42.9933 -87.5167 240° Southwest 317 365 9,500 -1,268 Descending Chicago Center
Fri 08:39:28 AM 42.9533 -87.6181 242° Southwest 273 314 7,400 -1,317 Descending Chicago Center
Fri 08:40:29 AM 42.9156 -87.7039 239° Southwest 265 305 6,800 -1,073 Descending Chicago Center
Fri 08:41:31 AM 42.8533 -87.7547 211° Southwest 258 297 5,200 -1,355 Descending Chicago Center
Fri 08:42:33 AM 42.7917 -87.7983 207° Southwest 252 290 4,000 -878 Descending Chicago Center
Fri 08:43:34 AM 42.7517 -87.8378 216° Southwest 219 252 3,400 -683 Descending Chicago Center
Fri 08:44:36 AM 42.7608 -87.9233 278° West 222 255 2,600 -390 Descending Chicago Center
Fri 08:45:37 AM 42.8117 -87.9306 354° North 217 250 2,600 -195 Level Chicago Center
Fri 08:46:39 AM 42.8617 -87.9078 18° North 179 206 2,200 -495 Descending Chicago Center
Fri 08:47:26 AM 42.8833 -87.9000 15° North 113 130 1,700 -690 Descending KMKE
Fri 08:48:32 AM 42.9167 -87.9000 360° North 113 130 900 -727 Descending KMKE
Fri 08:50:00 AM 42.9333 -87.8833 15° North  Level FlightAware Approximate
Fri 08:57:00 AM 42.9469 -87.8971 15° North  Level Estimated

Login

Don't have an account? Register now (free) for customized features, flight alerts, and more!